createdAt,value
2022-09-18T06:18:12.751Z,15.60
2022-09-18T06:21:00.325Z,16.00
2022-09-18T06:23:30.188Z,16.00
2022-09-18T06:29:52.766Z,15.70
2022-09-18T06:32:33.637Z,15.70
2022-09-18T06:35:03.255Z,15.80
2022-09-18T06:45:35.361Z,15.80
2022-09-18T06:52:46.103Z,15.90
2022-09-18T07:05:17.306Z,15.90
2022-09-18T07:07:46.183Z,16.40
2022-09-18T07:10:15.216Z,16.20
2022-09-18T07:12:48.776Z,16.00
2022-09-18T07:15:21.770Z,16.10
2022-09-18T07:25:46.887Z,16.20
2022-09-18T07:28:17.302Z,16.60
2022-09-18T07:31:47.481Z,16.60
2022-09-18T07:37:25.384Z,16.20
2022-09-18T07:46:28.193Z,16.30
2022-09-18T07:49:03.722Z,16.70
2022-09-18T07:51:31.214Z,16.30
2022-09-18T07:54:01.040Z,16.30
2022-09-18T07:56:50.842Z,16.80
2022-09-18T08:18:33.227Z,16.70
2022-09-18T08:21:16.623Z,16.80
2022-09-18T08:23:50.232Z,16.80
2022-09-18T08:26:22.441Z,17.00
2022-09-18T08:28:52.438Z,17.50
2022-09-18T08:31:20.915Z,17.20
2022-09-18T08:33:52.130Z,17.20
2022-09-18T08:36:20.230Z,17.30
2022-09-18T08:38:58.355Z,17.80
2022-09-18T08:42:26.156Z,17.50
2022-09-18T08:45:15.785Z,17.50
2022-09-18T08:48:04.130Z,17.60
2022-09-18T08:50:40.345Z,18.30
2022-09-18T08:53:20.548Z,17.70
2022-09-18T08:56:15.307Z,17.80
2022-09-18T08:58:58.734Z,17.90
2022-09-18T09:01:40.114Z,17.80
2022-09-18T09:04:24.116Z,18.50
2022-09-18T09:07:22.967Z,18.00
2022-09-18T09:09:57.074Z,18.00
2022-09-18T09:12:46.946Z,18.00
2022-09-18T09:15:45.226Z,18.00
2022-09-18T09:18:28.173Z,18.00
2022-09-18T09:34:06.371Z,17.90
2022-09-18T09:36:50.227Z,18.00
2022-09-18T09:39:31.399Z,17.90
2022-09-18T09:42:08.826Z,17.90
2022-09-18T09:44:41.700Z,18.00
2022-09-18T09:47:33.819Z,18.00
2022-09-18T09:50:05.749Z,18.00
2022-09-18T09:52:43.061Z,18.00
2022-09-18T09:55:19.256Z,18.10
2022-09-18T09:57:50.607Z,18.00
2022-09-18T10:00:20.372Z,18.00
2022-09-18T10:03:07.508Z,18.00
2022-09-18T10:05:53.907Z,18.10
2022-09-18T10:08:45.534Z,18.00
2022-09-18T10:14:21.026Z,18.10
2022-09-18T10:16:51.549Z,18.60
2022-09-18T10:19:21.398Z,18.20
2022-09-18T10:21:56.401Z,18.30
2022-09-18T10:25:04.041Z,18.40
2022-09-18T10:28:00.191Z,18.40
2022-09-18T10:30:35.999Z,18.50
2022-09-18T10:33:10.254Z,18.00
2022-09-18T10:35:45.245Z,18.50
2022-09-18T10:38:32.500Z,18.90
2022-09-18T10:41:35.597Z,18.40
2022-09-18T11:36:06.658Z,18.50
2022-09-18T11:38:44.141Z,18.60
2022-09-18T11:41:13.934Z,18.60
2022-09-18T11:43:55.264Z,18.50
2022-09-18T11:52:59.726Z,18.60
2022-09-18T11:55:40.243Z,18.60
2022-09-18T11:58:18.370Z,19.00
2022-09-18T12:01:17.029Z,18.50
2022-09-18T12:03:55.710Z,18.80
2022-09-18T12:06:38.909Z,18.50
2022-09-18T12:19:12.287Z,18.50
2022-09-18T12:21:48.077Z,18.50
2022-09-18T12:24:16.757Z,18.40
2022-09-18T12:27:10.226Z,18.40
2022-09-18T12:30:03.740Z,18.40
2022-09-18T13:00:08.499Z,18.40
2022-09-18T13:02:51.783Z,18.00
2022-09-18T13:05:46.527Z,18.90
2022-09-18T13:08:28.937Z,18.50
2022-09-18T13:11:23.573Z,18.40
2022-09-18T13:21:42.115Z,18.50
2022-09-18T13:30:39.198Z,18.50
2022-09-18T14:01:42.306Z,18.70
2022-09-18T14:05:20.584Z,18.70
2022-09-18T14:08:22.412Z,18.70
2022-09-18T14:14:26.096Z,18.60
2022-09-18T14:16:56.283Z,19.10
2022-09-18T14:19:35.238Z,18.70
2022-09-18T14:22:04.248Z,18.70
2022-09-18T18:00:24.803Z,17.00
2022-09-18T18:02:56.940Z,16.60
2022-09-18T18:48:08.190Z,16.60
2022-09-18T19:29:45.390Z,14.50
2022-09-18T19:55:05.846Z,14.30
2022-09-18T20:07:10.993Z,14.50
2022-09-18T20:09:40.134Z,14.80
2022-09-18T20:12:08.631Z,14.40
2022-09-18T20:14:35.983Z,14.50
2022-09-18T20:17:03.700Z,14.50
2022-09-18T20:19:31.009Z,14.50
2022-09-18T20:22:00.375Z,14.50
2022-09-18T20:24:27.670Z,14.50
2022-09-18T20:26:57.238Z,15.10
2022-09-18T20:29:25.293Z,14.60
2022-09-18T20:31:52.683Z,14.70
2022-09-18T20:34:24.668Z,14.70
2022-09-18T20:36:52.267Z,14.70
2022-09-18T20:39:19.746Z,14.70
2022-09-18T20:41:47.546Z,14.70
2022-09-18T20:44:15.370Z,14.70
2022-09-18T20:46:43.355Z,14.70
2022-09-18T20:49:12.621Z,14.70
2022-09-18T21:01:52.069Z,14.70
2022-09-18T21:04:32.094Z,14.70
2022-09-18T21:07:07.216Z,14.70
2022-09-18T21:09:39.769Z,14.90
2022-09-18T21:12:12.573Z,14.40
2022-09-18T21:14:46.790Z,14.70
2022-09-18T21:17:21.577Z,14.80
